Latest Weather Observations for Kuitpo

IDS60801

Issued at 8:02 pm CST Sunday 25 June 2017 (issued every 30 minutes, with the page automatically refreshed every 10 minutes)

About weather observations | Map of weather stations | Latest weather observations for SA | Other Formats
Station Details ID: 023887 Name: KUITPO FOREST RESERVE Lat: -35.17 Lon: 138.68 Height: 365.0 m
Data from the previous 72 hours. | See also: Recent months at Kuitpo
Date/Time
CST
Temp
°C
App
Temp
°C
Dew
Point
°C
Rel
Hum
%
Delta-T
°C
Wind Press
QNH
hPa
Press
MSL
hPa
Rain since
9am
mm
Dir  Spd
km/h
Gust
km/h
Spd
kts
Gust
kts
25/08:00pm 8.9 6.4 8.3 96 0.3 SW 11 17 6 9 1019.9 1020.1 1.8
25/07:30pm 8.8 5.9 8.2 96 0.3 WSW 13 20 7 11 1019.5 1019.7 1.8
25/07:00pm 9.0 6.1 8.1 94 0.4 WSW 13 20 7 11 1019.5 1019.7 1.8
25/06:30pm 9.3 6.6 7.3 87 1.0 W 11 17 6 9 1019.2 1019.4 0.6
25/06:00pm 9.2 6.6 7.8 91 0.7 WNW 11 15 6 8 1019.1 1019.3 0.6
25/05:30pm 9.0 6.4 7.6 91 0.7 WNW 11 17 6 9 1018.8 1019.1 0.6
25/05:00pm 9.4 6.9 8.0 91 0.7 WNW 11 17 6 9 1018.8 1019.1 0.6
25/04:30pm 9.9 7.6 9.1 95 0.4 W 11 19 6 10 1018.7 1018.9 0.6
25/04:00pm 9.6 7.3 9.0 96 0.3 W 11 15 6 8 1018.7 1018.9 0.6
25/03:30pm 9.3 6.9 8.5 95 0.4 W 11 17 6 9 1018.4 1018.6 0.6
25/03:00pm 8.9 5.6 8.0 94 0.4 WSW 15 20 8 11 1018.1 1018.3 0.6
25/02:30pm 10.1 6.9 8.4 89 0.8 W 15 22 8 12 1017.8 1018.0 0.4
25/02:00pm 9.9 7.6 9.0 94 0.5 WSW 11 15 6 8 1017.8 1018.0 0.4
25/01:30pm 10.1 7.1 9.2 94 0.5 WSW 15 22 8 12 1017.9 1018.1 0.4
25/01:00pm 9.7 6.7 9.1 96 0.3 SW 15 24 8 13 1018.1 1018.3 0.4
25/12:30pm 9.4 6.2 8.5 94 0.4 WSW 15 24 8 13 1018.3 1018.5 0.2
25/12:00pm 10.6 7.9 9.0 90 0.8 WSW 13 20 7 11 1018.5 1018.7 0.0
25/11:30am 10.5 8.7 9.4 93 0.6 WSW 9 15 5 8 1018.6 1018.8 0.0
25/11:00am 9.7 7.8 8.9 95 0.4 WSW 9 15 5 8 1018.7 1018.9 0.0
25/10:30am 10.2 8.8 9.7 97 0.3 WSW 7 13 4 7 1018.7 1018.9 0.0
25/10:00am 10.1 8.8 9.8 98 0.2 W 7 15 4 8 1018.6 1018.8 0.0
25/09:30am 10.0 8.6 9.7 98 0.2 NW 7 11 4 6 1018.4 1018.6 0.0
25/09:00am 9.3 7.9 9.0 98 0.2 NW 6 9 3 5 1018.1 1018.3 1.0
25/08:30am 8.9 7.4 8.6 98 0.1 WNW 6 9 3 5 1017.9 1018.1 1.0
25/08:00am 8.4 6.8 8.1 98 0.1 NNW 6 11 3 6 1017.8 1018.0 0.8
25/07:30am 8.6 7.1 8.3 98 0.1 WNW 6 9 3 5 1017.6 1017.8 0.8
25/07:00am 8.4 6.8 8.1 98 0.1 WSW 6 7 3 4 1017.4 1017.6 0.8
25/06:30am 8.2 6.4 7.9 98 0.1 NW 7 11 4 6 1017.0 1017.2 0.2
25/06:00am 8.5 6.0 8.2 98 0.1 WNW 11 15 6 8 1016.8 1017.0 0.2
25/05:30am 8.2 6.4 7.8 97 0.2 WNW 7 11 4 6 1016.6 1016.8 0.0
25/05:00am 9.0 6.6 8.7 98 0.1 NW 11 17 6 9 1016.4 1016.5 0.0
25/04:30am 8.9 6.5 8.6 98 0.1 NNW 11 17 6 9 1016.4 1016.5 0.0
25/04:00am 9.0 6.6 8.6 97 0.2 NW 11 17 6 9 1016.5 1016.6 0.0
25/03:30am 9.2 6.8 8.7 97 0.2 WNW 11 15 6 8 1016.6 1016.8 0.0
25/03:00am 9.5 8.0 9.0 97 0.3 WNW 7 11 4 6 1016.8 1017.0 0.0
25/02:30am 9.4 7.4 8.8 96 0.3 WNW 9 13 5 7 1017.0 1017.2 0.0
25/02:00am 9.5 7.9 8.7 95 0.4 WNW 7 11 4 6 1017.0 1017.2 0.0
25/01:30am 9.3 7.8 8.4 94 0.4 WNW 6 9 3 5 1017.0 1017.2 0.0
25/01:00am 9.3 7.5 8.1 92 0.6 NW 7 9 4 5 1017.1 1017.3 0.0
25/12:30am 9.6 7.5 8.4 92 0.6 NW 9 9 5 5 1017.2 1017.4 0.0
25/12:00am 8.8 8.3 7.7 93 0.5 CALM 0 0 0 0 1017.3 1017.5 0.0
 
Date/Time
CST
Temp
°C
App
Temp
°C
Dew
Point
°C
Rel
Hum
%
Delta-T
°C
Wind Press
QNH
hPa
Press
MSL
hPa
Rain since
9am
mm
Dir  Spd
km/h
Gust
km/h
Spd
kts
Gust
kts
24/11:30pm 9.0 7.4 7.9 93 0.5 N 6 7 3 4 1017.4 1017.6 0.0
24/11:00pm 8.3 6.3 6.9 91 0.7 NNE 7 7 4 4 1017.4 1017.6 0.0
24/10:30pm 8.9 7.2 7.5 91 0.7 NE 6 7 3 4 1017.4 1017.6 0.0
24/10:00pm 9.3 7.6 7.7 90 0.8 ENE 6 7 3 4 1017.5 1017.7 0.0
24/09:30pm 9.9 8.8 8.3 90 0.8 SE 4 7 2 4 1017.6 1017.8 0.0
24/09:00pm 9.6 9.1 7.9 89 0.8 CALM 0 2 0 1 1017.7 1017.9 0.0
24/08:30pm 9.8 9.3 7.9 88 0.9 CALM 0 0 0 0 1017.6 1017.8 0.0
24/08:00pm 9.7 8.4 7.6 87 1.0 SE 4 6 2 3 1017.6 1017.8 0.0
24/07:30pm 10.1 8.2 7.5 84 1.3 SSW 7 9 4 5 1017.5 1017.7 0.0
24/07:00pm 10.2 9.3 7.8 85 1.2 SW 2 7 1 4 1017.3 1017.5 0.0
24/06:30pm 10.3 8.6 7.7 84 1.3 SW 6 9 3 5 1017.2 1017.4 0.0
24/06:00pm 10.5 8.6 7.6 82 1.4 WSW 7 9 4 5 1017.1 1017.3 0.0
24/05:30pm 10.9 9.0 7.4 79 1.7 W 7 9 4 5 1016.9 1017.1 0.0
24/05:00pm 11.8 9.8 7.3 74 2.2 WSW 7 11 4 6 1016.9 1017.1 0.0
24/04:30pm 12.7 10.8 7.4 70 2.6 WSW 7 13 4 7 1016.8 1017.0 0.0
24/04:00pm 13.5 11.4 6.6 63 3.4 WNW 7 11 4 6 1016.7 1016.9 0.0
24/03:30pm 13.8 11.6 7.8 67 3.0 W 9 17 5 9 1016.9 1017.1 0.0
24/03:00pm 14.0 11.7 7.5 65 3.3 W 9 15 5 8 1016.8 1017.0 0.0
24/02:30pm 13.8 11.0 6.9 63 3.4 W 11 20 6 11 1016.8 1017.0 0.0
24/02:00pm 14.6 12.1 8.3 66 3.2 W 11 20 6 11 1016.9 1017.1 0.0
24/01:30pm 13.4 11.5 7.6 68 2.9 WNW 7 15 4 8 1017.0 1017.2 0.0
24/01:00pm 13.5 11.2 7.5 67 3.0 W 9 15 5 8 1017.3 1017.5 0.0
24/12:30pm 13.9 12.5 8.7 71 2.7 SSE 6 11 3 6 1017.7 1017.9 0.0
24/12:00pm 13.5 12.0 8.6 72 2.5 SSW 6 11 3 6 1018.1 1018.3 0.0
24/11:30am 12.9 11.2 7.4 69 2.7 NW 6 9 3 5 1018.4 1018.6 0.0
24/11:00am 13.8 12.1 9.8 77 2.1 NE 9 13 5 7 1018.8 1019.1 0.0
24/10:30am 12.7 11.0 9.7 82 1.6 NE 9 17 5 9 1018.9 1019.2 0.0
24/10:00am 11.5 9.4 9.8 89 0.9 ENE 11 15 6 8 1018.8 1019.1 0.0
24/09:30am 10.1 8.1 8.7 91 0.7 NE 9 13 5 7 1018.8 1019.1 0.0
24/09:00am 9.3 7.3 8.5 95 0.4 E 9 11 5 6 1018.7 1018.9 0.0
24/08:30am 9.2 7.2 8.7 97 0.2 ENE 9 13 5 7 1018.4 1018.6 0.0
24/08:00am 8.6 6.5 8.2 97 0.2 ENE 9 11 5 6 1018.5 1018.7 0.0
24/07:30am 7.8 5.4 7.2 96 0.3 E 9 11 5 6 1018.2 1018.4 0.0
24/07:00am 8.0 5.6 7.2 95 0.4 ESE 9 11 5 6 1018.1 1018.3 0.0
24/06:30am 8.6 6.4 7.7 94 0.4 ESE 9 9 5 5 1018.0 1018.2 0.0
24/06:00am 9.0 7.2 8.1 94 0.4 ESE 7 9 4 5 1017.6 1017.8 0.0
24/05:30am 9.0 7.2 7.9 93 0.5 ESE 7 9 4 5 1017.4 1017.6 0.0
24/05:00am 9.2 7.6 8.1 93 0.5 ESE 6 7 3 4 1017.6 1017.8 0.0
24/04:30am 8.9 8.4 7.8 93 0.5 CALM 0 0 0 0 1017.6 1017.8 0.0
24/04:00am 8.8 7.2 7.9 94 0.4 NNE 6 9 3 5 1017.5 1017.7 0.0
24/03:30am 8.6 6.9 7.5 93 0.5 E 6 6 3 3 1017.3 1017.5 0.0
24/03:00am 9.7 8.1 8.6 93 0.5 SE 7 9 4 5 1017.3 1017.5 0.0
24/02:30am 9.8 8.3 8.6 92 0.6 SE 6 6 3 3 1017.5 1017.7 0.0
24/02:00am 9.5 7.7 7.8 89 0.8 SE 7 7 4 4 1017.5 1017.7 0.0
24/01:30am 9.8 8.1 8.2 90 0.8 SSE 7 7 4 4 1017.4 1017.6 0.0
24/01:00am 9.2 8.6 7.2 87 1.0 CALM 0 0 0 0 1017.5 1017.7 0.0
24/12:30am 9.6 7.7 7.5 87 1.0 S 7 11 4 6 1017.6 1017.8 0.0
24/12:00am 10.4 8.6 8.0 85 1.2 SSW 7 9 4 5 1017.5 1017.7 0.0
 
Date/Time
CST
Temp
°C
App
Temp
°C
Dew
Point
°C
Rel
Hum
%
Delta-T
°C
Wind Press
QNH
hPa
Press
MSL
hPa
Rain since
9am
mm
Dir  Spd
km/h
Gust
km/h
Spd
kts
Gust
kts
23/11:30pm 10.5 8.8 7.7 83 1.4 SSW 6 9 3 5 1017.6 1017.8 0.0
23/11:00pm 10.4 9.8 7.3 81 1.5 CALM 0 6 0 3 1017.5 1017.7 0.0
23/10:30pm 10.6 8.9 7.5 81 1.5 SSW 6 6 3 3 1017.7 1017.9 0.0
23/10:00pm 11.2 9.5 7.5 78 1.8 SW 6 7 3 4 1017.7 1017.9 0.0
23/09:30pm 11.3 9.3 6.2 71 2.4 SSW 6 7 3 4 1017.6 1017.8 0.0
23/09:00pm 11.2 10.2 5.5 68 2.7 CALM 0 0 0 0 1017.6 1017.8 0.0
23/08:30pm 11.0 9.4 4.5 64 3.0 NNW 2 7 1 4 1017.3 1017.5 0.0
23/08:00pm 11.0 9.8 4.5 64 3.0 CALM 0 0 0 0 1017.1 1017.3 0.0
23/07:30pm 11.1 9.8 4.3 63 3.1 CALM 0 0 0 0 1017.1 1017.3 0.0
23/07:00pm 11.1 9.8 4.3 63 3.1 CALM 0 0 0 0 1016.9 1017.1 0.0
23/06:30pm 11.0 8.7 4.7 65 2.9 NNW 6 9 3 5 1016.6 1016.8 0.0
23/06:00pm 12.0 9.0 4.0 58 3.7 NW 9 11 5 6 1016.3 1016.4 0.0
23/05:30pm 11.8 9.2 4.1 59 3.5 NW 7 9 4 5 1016.2 1016.3 0.0
23/05:00pm 12.5 10.0 4.5 58 3.7 NNW 7 9 4 5 1015.9 1016.1 0.0
23/04:30pm 13.1 10.9 5.5 60 3.6 WNW 6 7 3 4 1015.9 1016.1 0.0
23/04:00pm 12.7 10.4 5.6 62 3.4 W 7 9 4 5 1015.9 1016.1 0.0
23/03:30pm 13.1 10.8 5.5 60 3.6 WNW 7 9 4 5 1016.0 1016.2 0.0
23/03:00pm 13.6 10.6 3.9 52 4.5 W 9 15 5 8 1016.0 1016.2 0.0
23/02:30pm 14.3 11.4 4.6 52 4.6 W 9 13 5 7 1015.8 1016.0 0.0
23/02:00pm 14.4 11.5 4.4 51 4.7 WNW 9 15 5 8 1015.9 1016.1 0.0
23/01:30pm 13.7 10.7 4.3 53 4.4 WNW 9 13 5 7 1016.2 1016.3 0.0
23/01:00pm 14.3 10.5 3.7 49 4.9 WNW 13 19 7 10 1016.6 1016.8 0.0
23/12:30pm 13.7 10.4 4.3 53 4.4 WNW 11 17 6 9 1016.5 1016.6 0.0
23/12:00pm 14.3 11.1 5.1 54 4.4 W 11 17 6 9 1016.9 1017.1 0.0
23/11:30am 14.1 11.2 4.9 54 4.4 WNW 9 15 5 8 1017.2 1017.4 0.0
23/11:00am 14.0 11.2 5.1 55 4.2 NW 9 15 5 8 1017.5 1017.7 0.0
23/10:30am 13.2 9.6 5.1 58 3.8 NW 13 17 7 9 1017.6 1017.8 0.0
23/10:00am 13.1 10.1 5.8 61 3.5 N 11 15 6 8 1017.6 1017.8 0.0
23/09:30am 12.7 9.6 5.4 61 3.5 NNW 11 17 6 9 1017.8 1018.0 0.0
23/09:00am 11.4 8.1 4.8 64 3.1 NNW 11 17 6 9 1017.6 1017.8 0.0
23/08:30am 10.6 7.3 4.5 66 2.8 NNW 11 19 6 10 1017.6 1017.8 0.0
23/08:00am 8.9 5.8 3.7 70 2.3 N 9 13 5 7 1017.3 1017.5 0.0
23/07:30am 8.6 5.1 3.4 70 2.3 NNW 11 13 6 7 1017.3 1017.5 0.0
23/07:00am 8.6 5.0 3.0 68 2.4 NNW 11 15 6 8 1017.0 1017.2 0.0
23/06:30am 8.5 4.5 2.9 68 2.4 N 13 19 7 10 1016.9 1017.1 0.0
23/06:00am 9.2 5.6 3.0 65 2.7 NNW 11 15 6 8 1017.0 1017.2 0.0
23/05:30am 8.6 5.0 3.2 69 2.4 N 11 20 6 11 1016.4 1016.5 0.0
23/05:00am 8.5 4.9 2.7 67 2.5 N 11 17 6 9 1016.7 1016.9 0.0
23/04:30am 8.9 4.8 2.5 64 2.8 NNW 13 22 7 12 1016.9 1017.1 0.0
23/04:00am 9.6 5.5 2.5 61 3.1 NNW 13 20 7 11 1017.1 1017.3 0.0
23/03:30am 8.7 5.4 2.3 64 2.7 N 9 17 5 9 1017.0 1017.2 0.0
23/03:00am 8.5 4.7 1.9 63 2.8 NNE 11 15 6 8 1017.3 1017.5 0.0
23/02:30am 8.5 4.6 1.4 61 3.0 NNE 11 17 6 9 1017.6 1017.8 0.0
23/02:00am 8.0 4.5 1.4 63 2.7 N 9 13 5 7 1018.0 1018.2 0.0
23/01:30am 7.4 3.6 1.5 66 2.4 NNE 11 13 6 7 1018.2 1018.4 0.0
23/01:00am 7.6 3.8 1.7 66 2.5 NNE 11 13 6 7 1018.4 1018.6 0.0
23/12:30am 7.7 4.2 1.5 65 2.6 NNE 9 13 5 7 1018.5 1018.7 0.0
23/12:00am 7.5 4.1 1.8 67 2.4 N 9 15 5 8 1018.8 1019.1 0.0
 
Date/Time
CST
Temp
°C
App
Temp
°C
Dew
Point
°C
Rel
Hum
%
Delta-T
°C
Wind Press
QNH
hPa
Press
MSL
hPa
Rain since
9am
mm
Dir  Spd
km/h
Gust
km/h
Spd
kts
Gust
kts
22/11:30pm 7.9 4.5 2.0 66 2.5 N 9 15 5 8 1019.2 1019.4 0.0
22/11:00pm 8.0 4.6 2.0 66 2.5 NNE 9 13 5 7 1019.5 1019.7 0.0
22/10:30pm 7.5 4.2 2.4 70 2.2 NNE 9 11 5 6 1019.8 1020.0 0.0
22/10:00pm 7.6 4.3 2.5 70 2.2 NE 9 11 5 6 1019.9 1020.1 0.0
22/09:30pm 8.4 4.8 2.8 68 2.4 NE 11 13 6 7 1020.0 1020.2 0.0
22/09:00pm 8.2 4.2 2.9 69 2.3 NNE 13 15 7 8 1020.3 1020.5 0.0
22/08:30pm 9.0 5.8 2.8 65 2.7 NNE 9 13 5 7 1020.2 1020.4 0.0

Other Formats:

Comma delimited format used in spreadsheet applications
http://www.bom.gov.au/fwo/IDS60801/IDS60801.94683.axf

JavaScript Object Notation format (JSON) in row-major order
http://www.bom.gov.au/fwo/IDS60801/IDS60801.94683.json